Time;durP1;ratioP1;P1;durP2;ratioP2;P2;SDS_P1;SDS_P2;PMS_P1;PMS_P2;Temp;Humidity;BMP_temperature;BMP_pressure;BME280_temperature;BME280_humidity;BME280_pressure;Samples;Min_cycle;Max_cycle;Signal;HPM_P1;HPM_P2
2022/10/19 00:01:05;;;;;;;9.35;5.30;;;10.80;99.90;;;;;;5093742;28;20173;-54
2022/10/19 00:03:32;;;;;;;10.38;5.93;;;10.80;99.90;;;;;;5093713;28;20668;-54
2022/10/19 00:05:58;;;;;;;7.78;4.97;;;10.70;99.90;;;;;;5093973;28;20207;-54
2022/10/19 00:08:23;;;;;;;7.43;4.32;;;10.80;99.90;;;;;;5093908;28;20169;-55
2022/10/19 00:10:49;;;;;;;8.05;4.80;;;10.70;99.90;;;;;;5093863;28;20173;-54
2022/10/19 00:13:15;;;;;;;6.13;4.50;;;10.70;99.90;;;;;;5093954;28;20161;-54
2022/10/19 00:15:41;;;;;;;7.47;4.35;;;10.70;99.90;;;;;;5094203;28;20576;-54
2022/10/19 00:18:07;;;;;;;7.22;4.88;;;10.70;99.90;;;;;;5093716;28;20169;-54
2022/10/19 00:20:34;;;;;;;20.90;5.50;;;10.70;99.90;;;;;;5093778;28;20218;-54
2022/10/19 00:23:00;;;;;;;10.73;5.50;;;10.70;99.90;;;;;;5093807;28;20682;-54
2022/10/19 00:25:25;;;;;;;12.30;5.65;;;10.70;99.90;;;;;;5093629;28;20203;-54
2022/10/19 00:27:51;;;;;;;7.07;4.70;;;10.70;99.90;;;;;;5093634;28;20256;-55
2022/10/19 00:30:17;;;;;;;13.80;4.88;;;10.60;99.90;;;;;;5093533;28;20173;-54
2022/10/19 00:32:42;;;;;;;9.18;5.32;;;10.70;99.90;;;;;;5093862;28;20177;-55
2022/10/19 00:35:08;;;;;;;11.32;5.10;;;10.70;99.90;;;;;;5075335;28;20173;-54
2022/10/19 00:37:34;;;;;;;14.43;4.78;;;10.70;99.90;;;;;;5093444;28;20170;-54
2022/10/19 00:39:59;;;;;;;9.50;5.30;;;10.70;99.90;;;;;;5093315;28;20556;-54
2022/10/19 00:42:25;;;;;;;9.45;5.00;;;10.60;99.90;;;;;;5093201;28;20587;-54
2022/10/19 00:44:50;;;;;;;11.60;5.00;;;10.60;99.90;;;;;;5093541;28;20177;-55
2022/10/19 00:47:22;;;;;;;7.80;5.20;;;10.60;99.90;;;;;;5093418;28;20633;-54
2022/10/19 00:49:47;;;;;;;9.77;4.40;;;10.60;99.90;;;;;;5092060;28;20208;-54
2022/10/19 00:52:16;;;;;;;7.88;5.15;;;10.60;99.90;;;;;;5093123;28;20197;-55
2022/10/19 00:54:44;;;;;;;11.73;4.90;;;10.60;99.90;;;;;;5075186;28;20587;-54
2022/10/19 00:57:10;;;;;;;10.82;5.30;;;10.50;99.90;;;;;;5093308;28;20250;-55
2022/10/19 00:59:38;;;;;;;10.05;5.95;;;10.50;99.90;;;;;;5092823;28;20196;-54
2022/10/19 01:02:04;;;;;;;13.55;5.03;;;10.50;99.90;;;;;;5092860;28;20172;-54
2022/10/19 01:04:34;;;;;;;10.43;4.72;;;10.50;99.90;;;;;;5093017;28;20625;-54
2022/10/19 01:07:02;;;;;;;8.35;5.13;;;10.40;99.90;;;;;;5092911;28;20165;-54
2022/10/19 01:09:27;;;;;;;15.85;5.20;;;10.40;99.90;;;;;;5092875;28;20173;-54
2022/10/19 01:12:16;;;;;;;12.80;5.50;;;10.40;99.90;;;;;;5092868;28;20202;-54
2022/10/19 01:14:49;;;;;;;15.57;6.60;;;10.40;99.90;;;;;;5093012;28;20628;-54
2022/10/19 01:17:32;;;;;;;12.52;5.85;;;10.40;99.90;;;;;;5092490;28;20627;-54
2022/10/19 01:19:58;;;;;;;13.95;5.60;;;10.30;99.90;;;;;;5074408;28;20165;-53
2022/10/19 01:22:46;;;;;;;10.90;4.97;;;10.30;99.90;;;;;;5092388;28;20185;-55
2022/10/19 01:25:23;;;;;;;13.35;4.80;;;10.40;99.90;;;;;;5092798;28;20193;-54
2022/10/19 01:28:02;;;;;;;10.38;4.55;;;10.40;99.90;;;;;;5092459;28;20158;-55
2022/10/19 01:30:48;;;;;;;11.65;4.68;;;10.30;99.90;;;;;;5092288;28;20165;-54
2022/10/19 01:33:41;;;;;;;15.77;4.57;;;10.30;99.90;;;;;;5092302;28;20157;-54
2022/10/19 01:36:09;;;;;;;8.50;4.55;;;10.30;99.90;;;;;;5091448;28;20220;-54
2022/10/19 01:38:57;;;;;;;6.65;4.72;;;10.30;99.90;;;;;;5092463;28;20169;-54
2022/10/19 01:41:35;;;;;;;6.85;3.97;;;10.30;99.90;;;;;;5092136;28;20567;-54
2022/10/19 01:44:16;;;;;;;15.80;4.78;;;10.30;99.90;;;;;;5092318;28;20212;-54
2022/10/19 01:46:52;;;;;;;17.48;5.10;;;10.20;99.90;;;;;;5074292;28;20634;-54
2022/10/19 01:49:41;;;;;;;9.50;4.53;;;10.20;99.90;;;;;;5092092;28;20532;-54
2022/10/19 01:52:09;;;;;;;8.88;4.80;;;10.10;99.90;;;;;;5092332;28;20172;-54
2022/10/19 01:54:42;;;;;;;10.20;4.57;;;10.10;99.90;;;;;;5091988;28;20165;-54
2022/10/19 01:57:11;;;;;;;11.68;4.28;;;10.10;99.90;;;;;;5092368;28;20217;-54
2022/10/19 01:59:38;;;;;;;9.65;4.85;;;10.10;99.90;;;;;;5091693;28;20711;-54
2022/10/19 02:02:07;;;;;;;8.00;4.55;;;10.00;99.90;;;;;;5091770;28;20252;-54
2022/10/19 02:04:34;;;;;;;8.35;4.35;;;10.10;99.90;;;;;;5091963;28;20212;-54
2022/10/19 02:07:01;;;;;;;11.45;4.72;;;10.00;99.90;;;;;;5091907;28;20214;-54
2022/10/19 02:09:27;;;;;;;10.45;4.35;;;10.10;99.90;;;;;;5091807;28;20173;-54
2022/10/19 02:11:57;;;;;;;7.22;4.50;;;10.00;99.90;;;;;;5097513;28;20692;-54
2022/10/19 02:14:27;;;;;;;8.77;4.45;;;9.90;99.90;;;;;;5111900;28;20161;-54
2022/10/19 02:17:06;;;;;;;9.63;4.85;;;9.90;99.90;;;;;;5112141;28;20251;-54
2022/10/19 02:19:33;;;;;;;12.57;4.82;;;9.90;99.90;;;;;;5112004;28;20175;-54
2022/10/19 02:21:59;;;;;;;7.55;4.80;;;9.90;99.90;;;;;;5112087;28;20169;-54
2022/10/19 02:24:24;;;;;;;12.02;4.95;;;9.90;99.90;;;;;;5111938;28;20211;-54
2022/10/19 02:26:51;;;;;;;6.95;4.03;;;9.80;99.90;;;;;;5112079;28;20552;-54
2022/10/19 02:29:16;;;;;;;8.25;4.60;;;9.80;99.90;;;;;;5112096;28;20175;-54
2022/10/19 02:31:43;;;;;;;7.97;4.72;;;9.90;99.90;;;;;;5112239;28;20636;-53
2022/10/19 02:34:09;;;;;;;7.95;4.68;;;9.80;99.90;;;;;;5112350;28;20628;-54
2022/10/19 02:36:34;;;;;;;8.68;4.28;;;9.70;99.90;;;;;;5111958;28;20210;-54
2022/10/19 02:39:00;;;;;;;8.70;4.50;;;9.80;99.90;;;;;;5111982;28;20165;-54
2022/10/19 02:41:33;;;;;;;6.53;4.30;;;9.70;99.90;;;;;;5112119;28;20177;-54
2022/10/19 02:44:04;;;;;;;9.98;3.95;;;9.70;99.90;;;;;;5111832;28;20231;-54
2022/10/19 02:46:52;;;;;;;5.97;4.25;;;9.70;99.90;;;;;;5111795;28;20206;-54
2022/10/19 02:49:18;;;;;;;5.45;4.15;;;9.60;99.90;;;;;;5111855;28;20191;-54
2022/10/19 02:52:00;;;;;;;4.75;3.97;;;9.70;99.90;;;;;;5111874;28;20636;-54
2022/10/19 02:54:26;;;;;;;5.78;4.18;;;9.70;99.90;;;;;;5112008;28;20160;-54
2022/10/19 02:56:52;;;;;;;10.63;4.30;;;9.60;99.90;;;;;;5111639;28;20161;-54
2022/10/19 02:59:17;;;;;;;7.95;3.97;;;9.60;99.90;;;;;;5111642;28;20678;-54
2022/10/19 03:01:43;;;;;;;9.07;3.60;;;9.40;99.90;;;;;;5111696;28;20169;-54
2022/10/19 03:04:09;;;;;;;7.97;3.58;;;9.40;99.90;;;;;;5112072;28;20342;-54
2022/10/19 03:06:34;;;;;;;8.73;3.75;;;9.50;99.90;;;;;;5111645;28;20221;-54
2022/10/19 03:09:00;;;;;;;6.45;3.90;;;9.40;99.90;;;;;;5111665;28;20190;-54
2022/10/19 03:11:25;;;;;;;4.43;3.40;;;9.40;99.90;;;;;;5093348;28;20164;-54
2022/10/19 03:13:51;;;;;;;11.75;3.85;;;9.40;99.90;;;;;;5114926;28;20164;-54
2022/10/19 03:16:16;;;;;;;5.32;3.22;;;9.40;99.90;;;;;;5097378;28;20168;-54
2022/10/19 03:18:42;;;;;;;5.15;3.75;;;9.40;99.90;;;;;;5115247;28;20168;-54
2022/10/19 03:21:10;;;;;;;5.57;3.53;;;9.40;99.90;;;;;;5115568;28;20165;-54
2022/10/19 03:23:37;;;;;;;4.32;2.97;;;9.40;99.90;;;;;;5096806;28;20570;-54
2022/10/19 03:26:04;;;;;;;5.60;3.65;;;9.40;99.90;;;;;;5115131;28;20161;-54
2022/10/19 03:28:30;;;;;;;6.82;3.67;;;9.40;99.90;;;;;;5115317;28;20252;-54
2022/10/19 03:30:56;;;;;;;8.80;4.63;;;9.40;99.90;;;;;;5115265;28;20246;-55
2022/10/19 03:33:22;;;;;;;8.32;4.30;;;9.40;99.90;;;;;;5114970;28;20679;-55
2022/10/19 03:35:47;;;;;;;4.68;3.40;;;9.30;99.90;;;;;;5115258;28;20206;-55
2022/10/19 03:38:14;;;;;;;4.70;3.30;;;9.30;99.90;;;;;;5114656;28;20579;-55
2022/10/19 03:40:39;;;;;;;15.30;3.00;;;9.10;99.90;;;;;;5115029;28;20164;-55
2022/10/19 03:43:05;;;;;;;7.43;3.65;;;9.10;99.90;;;;;;5114709;28;20234;-54
2022/10/19 03:45:30;;;;;;;5.95;3.85;;;9.10;99.90;;;;;;5114721;28;20616;-54
2022/10/19 03:47:56;;;;;;;6.55;3.88;;;9.10;99.90;;;;;;5114717;28;20254;-55
2022/10/19 03:50:21;;;;;;;7.05;3.17;;;9.10;99.90;;;;;;5114668;28;20165;-55
2022/10/19 03:52:50;;;;;;;9.15;3.78;;;9.10;99.90;;;;;;5114530;28;20623;-55
2022/10/19 03:55:16;;;;;;;6.45;3.42;;;9.00;99.90;;;;;;5114577;28;20161;-55
2022/10/19 03:57:42;;;;;;;8.77;3.42;;;9.10;99.90;;;;;;5114789;28;20324;-57
2022/10/19 04:00:08;;;;;;;6.95;3.35;;;9.10;99.90;;;;;;5114859;28;20636;-54
2022/10/19 04:02:34;;;;;;;6.28;3.78;;;9.10;99.90;;;;;;5114291;28;20219;-54
2022/10/19 04:05:00;;;;;;;11.27;3.67;;;9.10;99.90;;;;;;5114406;28;20628;-54
2022/10/19 04:07:25;;;;;;;7.35;4.03;;;9.10;99.90;;;;;;5114316;28;20601;-54
2022/10/19 04:09:51;;;;;;;10.38;3.97;;;9.10;99.90;;;;;;5114317;28;20165;-54
2022/10/19 04:12:16;;;;;;;7.00;3.67;;;9.10;99.90;;;;;;5114127;28;20188;-54
2022/10/19 04:14:42;;;;;;;5.43;2.95;;;9.00;99.90;;;;;;5114225;28;20677;-55
2022/10/19 04:17:09;;;;;;;7.53;3.20;;;8.90;99.90;;;;;;5114454;28;20191;-54
2022/10/19 04:19:34;;;;;;;5.90;3.45;;;8.90;99.90;;;;;;5114060;28;20222;-54
2022/10/19 04:22:00;;;;;;;3.65;3.00;;;8.80;99.90;;;;;;5114161;28;20169;-54
2022/10/19 04:24:26;;;;;;;7.60;2.80;;;8.80;99.90;;;;;;5114095;28;20663;-54
2022/10/19 04:26:54;;;;;;;6.47;3.42;;;8.70;99.90;;;;;;5114021;28;20620;-54
2022/10/19 04:29:24;;;;;;;4.95;3.00;;;8.80;99.90;;;;;;5114242;28;20176;-54
2022/10/19 04:31:52;;;;;;;7.38;4.25;;;8.80;99.90;;;;;;5113999;28;20247;-54
2022/10/19 04:34:18;;;;;;;7.05;3.38;;;8.80;99.90;;;;;;5113957;28;20195;-54
2022/10/19 04:36:44;;;;;;;6.13;2.95;;;8.80;99.90;;;;;;5113992;28;20498;-54
2022/10/19 04:39:10;;;;;;;4.18;2.85;;;8.80;99.90;;;;;;5114125;28;20167;-54
2022/10/19 04:41:37;;;;;;;6.53;3.03;;;8.80;99.90;;;;;;5113625;28;20656;-54
2022/10/19 04:44:05;;;;;;;7.25;3.08;;;8.80;99.90;;;;;;5113552;28;20285;-53
2022/10/19 04:46:31;;;;;;;5.22;2.78;;;8.80;99.90;;;;;;5113764;28;20302;-54
2022/10/19 04:48:58;;;;;;;6.45;3.80;;;8.70;99.90;;;;;;5113484;28;20255;-54
2022/10/19 04:51:24;;;;;;;10.18;4.10;;;8.70;99.90;;;;;;5113448;28;20179;-54
2022/10/19 04:53:50;;;;;;;6.22;2.90;;;8.70;99.90;;;;;;5113439;28;20165;-54
2022/10/19 04:56:25;;;;;;;8.30;2.78;;;8.70;99.90;;;;;;5113383;28;20167;-54
2022/10/19 04:58:55;;;;;;;6.18;2.80;;;8.60;99.90;;;;;;5113127;28;20229;-55
2022/10/19 05:01:21;;;;;;;9.82;2.75;;;8.50;99.90;;;;;;5113474;28;20176;-54
2022/10/19 05:03:47;;;;;;;7.63;2.92;;;8.50;99.90;;;;;;5113135;28;20196;-54
2022/10/19 05:06:14;;;;;;;4.25;2.55;;;8.50;99.90;;;;;;5113179;28;20255;-54
2022/10/19 05:08:40;;;;;;;7.90;3.15;;;8.50;99.90;;;;;;5113588;28;20627;-55
2022/10/19 05:11:13;;;;;;;6.85;3.47;;;8.40;99.90;;;;;;5113036;28;20169;-54
2022/10/19 05:13:39;;;;;;;8.68;2.97;;;8.50;99.90;;;;;;5113387;28;20753;-55
2022/10/19 05:16:07;;;;;;;9.05;3.92;;;8.50;99.90;;;;;;5112825;28;20165;-53
2022/10/19 05:18:33;;;;;;;4.60;3.67;;;8.40;99.90;;;;;;5112553;28;20161;-52
2022/10/19 05:21:03;;;;;;;3.17;2.28;;;8.40;99.90;;;;;;5112816;28;20161;-53
2022/10/19 05:23:29;;;;;;;3.15;2.80;;;8.40;99.90;;;;;;5112783;28;20213;-53
2022/10/19 05:26:09;;;;;;;4.32;3.20;;;8.40;99.90;;;;;;5113012;28;20169;-52
2022/10/19 05:28:35;;;;;;;12.30;5.00;;;8.40;99.90;;;;;;5112769;28;20169;-53
2022/10/19 05:31:07;;;;;;;13.70;6.88;;;8.40;99.90;;;;;;5112589;28;20191;-53
2022/10/19 05:33:33;;;;;;;13.40;6.65;;;8.40;99.90;;;;;;5112702;28;20203;-53
2022/10/19 05:35:59;;;;;;;8.40;4.18;;;8.40;99.90;;;;;;5112010;28;20551;-53
2022/10/19 05:38:24;;;;;;;9.95;4.53;;;8.40;99.90;;;;;;5112468;28;20168;-54
2022/10/19 05:40:50;;;;;;;9.20;5.60;;;8.40;99.90;;;;;;5112779;28;20239;-54
2022/10/19 05:43:15;;;;;;;20.92;9.10;;;8.40;99.90;;;;;;5112305;28;20219;-53
2022/10/19 05:45:41;;;;;;;11.43;5.03;;;8.40;99.90;;;;;;5112465;28;20202;-53
2022/10/19 05:48:06;;;;;;;7.72;4.28;;;8.40;99.90;;;;;;5112749;28;20172;-53
2022/10/19 05:50:32;;;;;;;10.75;4.70;;;8.30;99.90;;;;;;5112331;28;20183;-53
2022/10/19 05:52:57;;;;;;;8.68;4.93;;;8.30;99.90;;;;;;5112301;28;20172;-53
2022/10/19 05:55:23;;;;;;;8.73;4.50;;;8.30;99.90;;;;;;5112627;28;20180;-53
2022/10/19 05:57:48;;;;;;;9.85;4.50;;;8.30;99.90;;;;;;5112037;28;20208;-53
2022/10/19 06:00:14;;;;;;;6.95;3.75;;;8.30;99.90;;;;;;5112078;28;20169;-54
2022/10/19 06:02:40;;;;;;;9.50;3.67;;;8.30;99.90;;;;;;5112525;28;20184;-53
2022/10/19 06:05:06;;;;;;;6.93;3.45;;;8.30;99.90;;;;;;5111978;28;20176;-54
2022/10/19 06:07:31;;;;;;;5.13;3.67;;;8.30;99.90;;;;;;5112204;28;20603;-54
2022/10/19 06:09:57;;;;;;;6.25;3.97;;;8.20;99.90;;;;;;5112032;28;20163;-54
2022/10/19 06:12:22;;;;;;;4.80;3.72;;;8.30;99.90;;;;;;5111903;28;20220;-54
2022/10/19 06:14:51;;;;;;;5.28;3.30;;;8.30;99.90;;;;;;5112147;28;20164;-54
2022/10/19 06:17:16;;;;;;;7.75;3.75;;;8.30;99.90;;;;;;5112019;28;20206;-53
2022/10/19 06:19:42;;;;;;;6.85;3.50;;;8.20;99.90;;;;;;5112028;28;20542;-54
2022/10/19 06:22:07;;;;;;;5.97;3.90;;;8.30;99.90;;;;;;5112324;28;20171;-54
2022/10/19 06:24:33;;;;;;;9.07;3.72;;;8.30;99.90;;;;;;5111948;28;20205;-55
2022/10/19 06:26:59;;;;;;;5.47;3.35;;;8.30;99.90;;;;;;5111902;28;20165;-54
2022/10/19 06:29:24;;;;;;;4.55;3.40;;;8.30;99.90;;;;;;5111932;28;20173;-52
2022/10/19 06:31:50;;;;;;;6.55;3.80;;;8.30;99.90;;;;;;5111876;28;20172;-53
2022/10/19 06:34:16;;;;;;;9.07;4.10;;;8.20;99.90;;;;;;5112105;28;20191;-54
2022/10/19 06:36:42;;;;;;;10.85;4.85;;;8.30;99.90;;;;;;5111810;28;20624;-53
2022/10/19 06:39:07;;;;;;;18.73;9.23;;;8.30;99.90;;;;;;5112159;28;20161;-55
2022/10/19 06:41:33;;;;;;;16.05;7.75;;;8.30;99.90;;;;;;5111801;28;20169;-55
2022/10/19 06:43:59;;;;;;;17.52;8.23;;;8.30;99.90;;;;;;5111959;28;20208;-56
2022/10/19 06:46:25;;;;;;;7.40;4.53;;;8.30;99.90;;;;;;5111837;28;20558;-56
2022/10/19 06:48:57;;;;;;;16.10;7.30;;;8.30;99.90;;;;;;5115229;28;20169;-55
2022/10/19 06:51:24;;;;;;;14.65;6.78;;;8.40;99.90;;;;;;5115749;28;20157;-54
2022/10/19 06:53:51;;;;;;;9.35;5.68;;;8.40;99.90;;;;;;5115726;28;20172;-54
2022/10/19 06:56:17;;;;;;;19.27;8.27;;;8.40;99.90;;;;;;5115616;28;20256;-55
2022/10/19 06:58:42;;;;;;;12.18;5.13;;;8.40;99.90;;;;;;5097276;28;20354;-56
2022/10/19 07:01:10;;;;;;;15.48;6.38;;;8.50;99.90;;;;;;5115895;28;20175;-55
2022/10/19 07:03:36;;;;;;;7.93;4.30;;;8.60;99.90;;;;;;5116088;28;20235;-57
2022/10/19 07:06:07;;;;;;;4.97;3.28;;;8.60;99.90;;;;;;5115469;28;20160;-56
2022/10/19 07:08:35;;;;;;;6.75;4.18;;;8.60;99.90;;;;;;5097167;28;20173;-52
2022/10/19 07:11:05;;;;;;;6.13;3.42;;;8.60;99.90;;;;;;5115603;28;20175;-53
2022/10/19 07:13:30;;;;;;;5.07;2.83;;;8.60;99.90;;;;;;5115501;28;21177;-56
2022/10/19 07:16:04;;;;;;;7.68;3.70;;;8.70;99.90;;;;;;5115280;28;20196;-56
2022/10/19 07:18:37;;;;;;;7.95;5.20;;;8.70;99.90;;;;;;5115478;28;20259;-54
2022/10/19 07:21:06;;;;;;;11.30;6.03;;;8.90;99.90;;;;;;5115054;28;20164;-55
2022/10/19 07:23:33;;;;;;;15.52;5.35;;;9.10;99.90;;;;;;5114823;28;20203;-57
2022/10/19 07:26:08;;;;;;;11.70;5.35;;;9.10;99.90;;;;;;5115009;28;20243;-55
2022/10/19 07:28:34;;;;;;;8.32;3.97;;;9.20;99.90;;;;;;5115223;28;20173;-54
2022/10/19 07:31:07;;;;;;;19.88;7.95;;;9.30;99.90;;;;;;5114968;28;20221;-55
2022/10/19 07:33:33;;;;;;;25.48;9.30;;;9.40;99.90;;;;;;5115095;28;20184;-56
2022/10/19 07:36:04;;;;;;;15.10;7.55;;;9.50;99.90;;;;;;5115029;28;20161;-55
2022/10/19 07:38:30;;;;;;;22.85;8.40;;;9.60;99.90;;;;;;5114637;28;20557;-54
2022/10/19 07:41:04;;;;;;;10.35;6.45;;;9.70;99.90;;;;;;5114766;28;20254;-55
2022/10/19 07:43:30;;;;;;;8.45;5.40;;;9.70;99.90;;;;;;5114688;28;20208;-55
2022/10/19 07:46:08;;;;;;;12.20;6.38;;;9.80;99.90;;;;;;5114622;28;20157;-55
2022/10/19 07:48:34;;;;;;;10.73;6.72;;;9.90;99.90;;;;;;5096018;28;20168;-55
2022/10/19 07:51:05;;;;;;;24.20;14.73;;;10.10;99.90;;;;;;5114541;28;20696;-56
2022/10/19 07:53:32;;;;;;;13.75;10.27;;;10.30;99.90;;;;;;5114374;28;20210;-56
2022/10/19 07:56:06;;;;;;;12.93;7.28;;;10.50;99.90;;;;;;5114476;28;20164;-54
2022/10/19 07:58:33;;;;;;;9.48;6.38;;;10.60;99.90;;;;;;5113515;28;20315;-56
2022/10/19 08:01:10;;;;;;;8.10;6.13;;;10.70;99.90;;;;;;5114526;28;20172;-55
2022/10/19 08:03:36;;;;;;;9.20;5.68;;;10.80;99.90;;;;;;5114210;28;20204;-56
2022/10/19 08:06:04;;;;;;;9.75;6.50;;;11.00;99.90;;;;;;5095952;28;20202;-55
2022/10/19 08:08:29;;;;;;;8.52;5.88;;;10.90;99.90;;;;;;5113950;28;20172;-55
2022/10/19 08:10:55;;;;;;;9.00;5.93;;;11.00;99.90;;;;;;5114115;28;20204;-56
2022/10/19 08:13:21;;;;;;;14.65;5.93;;;11.10;99.90;;;;;;5114455;28;20180;-55
2022/10/19 08:15:46;;;;;;;10.55;5.70;;;11.00;99.90;;;;;;5114330;28;20171;-56
2022/10/19 08:18:12;;;;;;;8.77;5.30;;;11.00;99.90;;;;;;5113952;28;20724;-55
2022/10/19 08:20:41;;;;;;;10.13;5.68;;;11.10;99.90;;;;;;5114095;28;20666;-54
2022/10/19 08:23:06;;;;;;;8.73;6.00;;;11.30;99.90;;;;;;5114530;28;20350;-53
2022/10/19 08:25:32;;;;;;;8.07;5.80;;;11.40;99.90;;;;;;5114014;28;20635;-52
2022/10/19 08:27:58;;;;;;;11.15;6.47;;;11.60;99.90;;;;;;5114113;28;20620;-53
2022/10/19 08:30:23;;;;;;;10.88;6.53;;;11.50;99.90;;;;;;5113666;28;20176;-53
2022/10/19 08:32:49;;;;;;;11.95;6.78;;;11.50;99.90;;;;;;5113731;28;20167;-53
2022/10/19 08:35:14;;;;;;;11.60;7.40;;;11.40;99.90;;;;;;5113692;28;20161;-52
2022/10/19 08:37:40;;;;;;;11.30;7.38;;;11.50;99.90;;;;;;5113662;28;20217;-53
2022/10/19 08:40:16;;;;;;;15.35;8.05;;;11.60;99.90;;;;;;5113912;28;20176;-53
2022/10/19 08:42:41;;;;;;;11.90;7.72;;;11.60;99.90;;;;;;5113515;28;20270;-53
2022/10/19 08:45:24;;;;;;;12.15;7.22;;;11.50;99.90;;;;;;5113764;28;20256;-54
2022/10/19 08:48:13;;;;;;;11.93;8.20;;;11.50;99.90;;;;;;5113202;28;20161;-54
2022/10/19 08:50:42;;;;;;;13.15;8.70;;;11.80;99.90;;;;;;5113751;28;20161;-54
2022/10/19 08:53:34;;;;;;;10.75;7.97;;;12.10;99.90;;;;;;5095453;28;20172;-53
2022/10/19 08:56:17;;;;;;;12.70;8.18;;;12.00;99.90;;;;;;5112918;28;20157;-53
2022/10/19 08:59:07;;;;;;;12.55;8.60;;;11.90;99.90;;;;;;5112673;28;20216;-53
2022/10/19 09:01:38;;;;;;;14.55;9.93;;;12.20;99.90;;;;;;5112211;28;20200;-54
2022/10/19 09:04:11;;;;;;;10.60;7.40;;;12.40;99.90;;;;;;5112622;28;20208;-54
2022/10/19 09:06:47;;;;;;;15.07;8.07;;;12.40;99.90;;;;;;5095035;28;20192;-53
2022/10/19 09:09:14;;;;;;;15.07;8.73;;;12.50;99.90;;;;;;5112554;28;20178;-53
2022/10/19 09:11:46;;;;;;;9.30;7.35;;;12.50;99.90;;;;;;5112428;28;20689;-53
2022/10/19 09:14:44;;;;;;;11.90;7.97;;;12.40;99.90;;;;;;5112721;28;20161;-53
2022/10/19 09:17:14;;;;;;;10.52;7.70;;;12.60;99.90;;;;;;5113125;28;20161;-53
2022/10/19 09:19:39;;;;;;;10.85;7.63;;;12.60;99.90;;;;;;5094924;28;20173;-53
2022/10/19 09:22:13;;;;;;;16.52;8.32;;;12.70;99.90;;;;;;5113151;28;20252;-55
2022/10/19 09:24:42;;;;;;;12.10;7.60;;;12.70;99.90;;;;;;5113039;28;20211;-55
2022/10/19 09:27:19;;;;;;;12.63;7.50;;;12.90;99.90;;;;;;5113373;28;20255;-54
2022/10/19 09:29:52;;;;;;;11.82;6.90;;;12.90;99.90;;;;;;5112290;28;20634;-54
2022/10/19 09:32:23;;;;;;;15.48;7.82;;;12.60;99.90;;;;;;5094260;28;20576;-55
2022/10/19 09:34:53;;;;;;;10.55;7.18;;;12.80;99.90;;;;;;5112659;28;20165;-55
2022/10/19 09:37:20;;;;;;;10.52;7.93;;;13.00;99.90;;;;;;5094385;28;20180;-53
2022/10/19 09:39:46;;;;;;;10.57;6.43;;;13.30;99.90;;;;;;5112527;28;20179;-56
2022/10/19 09:42:27;;;;;;;10.18;6.68;;;13.30;99.90;;;;;;5112445;28;20631;-54
2022/10/19 09:44:53;;;;;;;8.68;6.57;;;13.40;99.90;;;;;;5112528;28;20169;-53
2022/10/19 09:47:41;;;;;;;12.13;6.60;;;13.40;99.90;;;;;;5112426;28;20255;-53
2022/10/19 09:50:14;;;;;;;10.27;7.05;;;13.50;99.90;;;;;;5094203;28;20179;-54
2022/10/19 09:52:42;;;;;;;11.95;6.15;;;13.60;99.90;;;;;;5112290;28;20236;-54
2022/10/19 09:55:13;;;;;;;11.32;5.95;;;13.90;99.90;;;;;;5112201;28;20212;-53
2022/10/19 09:57:47;;;;;;;8.90;5.40;;;13.90;99.90;;;;;;5112041;28;20699;-54
2022/10/19 10:00:23;;;;;;;11.10;6.05;;;13.90;99.90;;;;;;5112088;28;20176;-54
2022/10/19 10:02:53;;;;;;;10.77;7.03;;;14.00;99.90;;;;;;5112034;28;20198;-54
2022/10/19 10:05:28;;;;;;;10.65;6.32;;;13.90;99.90;;;;;;5093927;28;20169;-54
2022/10/19 10:07:54;;;;;;;11.63;6.90;;;14.00;99.90;;;;;;5112148;28;20168;-54
2022/10/19 10:10:24;;;;;;;9.43;6.05;;;14.10;99.90;;;;;;5112091;28;20245;-54
2022/10/19 10:12:51;;;;;;;10.02;6.35;;;14.20;99.90;;;;;;5112008;28;20266;-54
2022/10/19 10:15:26;;;;;;;10.65;5.70;;;14.40;99.90;;;;;;5111940;28;20161;-55
2022/10/19 10:17:54;;;;;;;8.02;5.72;;;14.40;99.90;;;;;;5111552;28;20168;-54
2022/10/19 10:20:27;;;;;;;10.77;6.65;;;14.10;99.90;;;;;;5112097;28;20165;-55
2022/10/19 10:22:59;;;;;;;12.73;7.45;;;14.40;99.90;;;;;;5115138;28;20192;-55
2022/10/19 10:25:28;;;;;;;12.35;7.47;;;14.70;99.90;;;;;;5095609;28;20249;-55
2022/10/19 10:28:01;;;;;;;13.95;7.55;;;14.40;99.90;;;;;;5095505;28;20201;-55
2022/10/19 10:30:33;;;;;;;10.93;6.00;;;14.70;99.90;;;;;;5095872;28;20169;-56
2022/10/19 10:33:00;;;;;;;11.25;6.75;;;14.70;99.90;;;;;;5095698;28;20207;-55
2022/10/19 10:35:33;;;;;;;10.68;5.80;;;14.80;99.90;;;;;;5095587;28;20176;-55
2022/10/19 10:38:15;;;;;;;8.88;6.05;;;14.80;99.90;;;;;;5095110;28;20240;-55
2022/10/19 10:40:50;;;;;;;12.57;5.75;;;15.00;99.90;;;;;;5095253;28;20157;-55
2022/10/19 10:43:19;;;;;;;13.63;6.60;;;15.00;99.90;;;;;;5095366;28;20197;-56
2022/10/19 10:45:48;;;;;;;11.70;6.50;;;14.90;99.90;;;;;;5095159;28;20173;-54
2022/10/19 10:48:34;;;;;;;8.73;5.50;;;15.00;99.90;;;;;;5095325;28;20236;-55
2022/10/19 10:51:01;;;;;;;9.18;5.90;;;15.10;99.90;;;;;;5095336;28;20576;-56
2022/10/19 10:53:42;;;;;;;10.77;5.68;;;15.10;99.90;;;;;;5095289;28;20165;-55
2022/10/19 10:56:23;;;;;;;8.45;5.43;;;15.10;99.90;;;;;;5095413;28;20161;-55
2022/10/19 10:59:18;;;;;;;8.93;5.47;;;15.20;99.90;;;;;;5093632;28;20558;-56
2022/10/19 11:02:16;;;;;;;9.77;5.18;;;15.40;99.90;;;;;;5093549;28;20177;-54
2022/10/19 11:04:49;;;;;;;6.30;4.72;;;15.50;99.90;;;;;;5081846;28;20218;-53
2022/10/19 11:07:21;;;;;;;12.13;5.88;;;15.60;99.90;;;;;;5094194;28;20528;-55
2022/10/19 11:09:57;;;;;;;11.70;6.07;;;15.80;99.90;;;;;;5094172;28;20173;-54
2022/10/19 11:12:34;;;;;;;23.50;13.05;;;15.80;99.90;;;;;;5094661;28;20161;-53
2022/10/19 11:15:10;;;;;;;14.05;8.38;;;16.10;99.90;;;;;;5094767;28;20165;-53
2022/10/19 11:17:38;;;;;;;34.63;17.58;;;16.10;99.90;;;;;;5095224;28;20173;-53
2022/10/19 11:20:14;;;;;;;108.03;48.08;;;16.10;99.90;;;;;;5095133;28;20193;-54
2022/10/19 11:22:43;;;;;;;49.50;28.48;;;16.10;99.90;;;;;;5094682;28;20161;-53
2022/10/19 11:25:12;;;;;;;17.88;9.77;;;16.10;99.90;;;;;;5094973;28;20189;-54
2022/10/19 11:27:54;;;;;;;12.20;7.75;;;16.10;99.90;;;;;;5094876;28;20161;-53
2022/10/19 11:30:22;;;;;;;9.65;5.70;;;16.20;99.90;;;;;;5076257;28;20207;-53
2022/10/19 11:33:00;;;;;;;17.98;9.50;;;16.20;99.90;;;;;;5093551;28;20171;-53
2022/10/19 11:35:44;;;;;;;12.15;7.50;;;16.20;99.90;;;;;;5076247;28;20718;-53
2022/10/19 11:38:32;;;;;;;21.38;11.73;;;16.00;99.90;;;;;;5094429;28;20161;-53
2022/10/19 11:41:16;;;;;;;11.02;6.15;;;15.90;99.90;;;;;;5094370;28;20201;-53
2022/10/19 11:44:08;;;;;;;16.83;9.68;;;16.20;99.90;;;;;;5094046;28;20197;-53
2022/10/19 11:46:57;;;;;;;10.43;6.50;;;16.30;99.90;;;;;;5094552;28;20195;-53
2022/10/19 11:49:35;;;;;;;10.45;6.32;;;16.40;99.90;;;;;;5085917;28;20181;-54
2022/10/19 11:52:15;;;;;;;14.20;9.20;;;16.30;99.90;;;;;;5094383;28;20520;-53
2022/10/19 11:54:41;;;;;;;13.77;7.22;;;16.30;99.90;;;;;;5094300;28;20169;-54
2022/10/19 11:57:14;;;;;;;26.70;13.57;;;16.30;99.90;;;;;;5094186;28;20652;-53
2022/10/19 12:00:05;;;;;;;8.02;5.28;;;16.40;99.90;;;;;;5094017;28;20180;-54
2022/10/19 12:02:54;;;;;;;14.10;5.82;;;16.20;99.90;;;;;;5093998;28;20165;-53
2022/10/19 12:05:43;;;;;;;12.77;6.70;;;16.40;99.90;;;;;;5093868;28;20524;-54
2022/10/19 12:08:27;;;;;;;15.10;7.13;;;16.60;99.90;;;;;;5094140;28;20166;-54
2022/10/19 12:11:17;;;;;;;12.07;6.80;;;16.60;99.90;;;;;;5093715;28;20173;-53
2022/10/19 12:13:49;;;;;;;13.70;7.35;;;16.70;99.90;;;;;;5093733;28;20157;-54
2022/10/19 12:16:17;;;;;;;10.32;6.10;;;16.50;99.90;;;;;;5093727;28;20166;-54
2022/10/19 12:18:47;;;;;;;18.45;8.88;;;16.70;99.90;;;;;;5075493;28;20165;-53
2022/10/19 12:21:25;;;;;;;11.93;5.47;;;16.90;99.90;;;;;;5093444;28;20536;-54
2022/10/19 12:23:53;;;;;;;13.02;6.97;;;16.80;99.90;;;;;;5093270;28;20641;-53
2022/10/19 12:26:20;;;;;;;13.32;7.32;;;16.80;99.90;;;;;;5093311;28;20256;-53
2022/10/19 12:28:51;;;;;;;16.63;7.95;;;16.70;99.90;;;;;;5093665;28;20169;-54
2022/10/19 12:31:17;;;;;;;12.40;6.82;;;16.70;99.90;;;;;;5093442;28;20157;-54
2022/10/19 12:34:01;;;;;;;10.07;6.40;;;16.90;99.90;;;;;;5093399;28;20166;-54
2022/10/19 12:36:46;;;;;;;17.17;8.02;;;16.80;99.90;;;;;;5093302;28;20165;-53
2022/10/19 12:39:22;;;;;;;6.82;5.25;;;17.00;99.90;;;;;;5093250;28;20269;-53
2022/10/19 12:41:51;;;;;;;11.45;6.30;;;17.00;99.90;;;;;;5093135;28;20613;-53
2022/10/19 12:44:26;;;;;;;12.02;5.93;;;16.90;99.90;;;;;;5092908;28;20196;-53
2022/10/19 12:46:59;;;;;;;11.95;7.50;;;16.90;99.90;;;;;;5093173;28;20225;-53
2022/10/19 12:49:35;;;;;;;16.40;7.80;;;16.80;99.90;;;;;;5092990;28;20165;-55
2022/10/19 12:52:02;;;;;;;10.32;6.50;;;16.90;99.90;;;;;;5093054;28;20244;-56
2022/10/19 12:54:31;;;;;;;15.25;6.63;;;16.60;99.90;;;;;;5092985;28;20162;-55
2022/10/19 12:56:59;;;;;;;11.27;6.07;;;16.60;99.90;;;;;;5092939;28;20218;-53
2022/10/19 12:59:29;;;;;;;14.90;6.97;;;16.60;99.90;;;;;;5074540;28;20220;-54
2022/10/19 13:01:55;;;;;;;15.23;7.88;;;16.70;99.90;;;;;;5092789;28;20621;-55